createdAt,value
2023-11-30T00:00:45.307Z,100.00
2023-11-30T00:03:13.235Z,100.00
2023-11-30T00:05:40.644Z,100.00
2023-11-30T00:08:07.986Z,100.00
2023-11-30T00:10:35.723Z,100.00
2023-11-30T00:13:03.109Z,100.00
2023-11-30T00:15:30.573Z,100.00
2023-11-30T00:17:58.595Z,100.00
2023-11-30T00:20:26.024Z,100.00
2023-11-30T00:22:53.403Z,100.00
2023-11-30T00:25:21.276Z,100.00
2023-11-30T00:27:48.678Z,100.00
2023-11-30T00:30:16.391Z,100.00
2023-11-30T00:32:44.204Z,100.00
2023-11-30T00:35:11.567Z,100.00
2023-11-30T00:37:38.933Z,100.00
2023-11-30T00:40:08.461Z,100.00
2023-11-30T00:42:35.919Z,100.00
2023-11-30T00:45:03.504Z,100.00
2023-11-30T00:47:31.338Z,100.00
2023-11-30T00:49:58.841Z,100.00
2023-11-30T00:52:26.149Z,100.00
2023-11-30T00:54:53.951Z,100.00
2023-11-30T00:57:21.415Z,100.00
2023-11-30T00:59:48.828Z,100.00
2023-11-30T01:02:17.174Z,100.00
2023-11-30T01:04:44.578Z,100.00
2023-11-30T01:07:12.129Z,100.00
2023-11-30T01:09:40.282Z,100.00
2023-11-30T01:12:07.960Z,100.00
2023-11-30T01:14:35.733Z,100.00
2023-11-30T01:17:03.756Z,100.00
2023-11-30T01:19:31.190Z,100.00
2023-11-30T01:21:58.622Z,100.00
2023-11-30T01:24:26.386Z,100.00
2023-11-30T01:26:54.021Z,100.00
2023-11-30T01:29:21.471Z,100.00
2023-11-30T01:31:49.254Z,100.00
2023-11-30T01:34:16.649Z,100.00
2023-11-30T01:36:45.111Z,100.00
2023-11-30T01:39:15.251Z,100.00
2023-11-30T01:41:43.530Z,100.00
2023-11-30T01:44:11.768Z,100.00
2023-11-30T01:46:39.940Z,100.00
2023-11-30T01:49:09.182Z,100.00
2023-11-30T01:51:37.930Z,100.00
2023-11-30T01:54:08.774Z,100.00
2023-11-30T01:56:39.312Z,100.00
2023-11-30T01:59:09.110Z,100.00
2023-11-30T02:01:37.088Z,100.00
2023-11-30T02:04:15.473Z,100.00
2023-11-30T02:06:47.605Z,100.00
2023-11-30T02:09:15.804Z,100.00
2023-11-30T02:11:43.523Z,100.00
2023-11-30T02:14:10.894Z,100.00
2023-11-30T02:16:38.710Z,100.00
2023-11-30T02:19:06.747Z,100.00
2023-11-30T02:21:34.581Z,100.00
2023-11-30T02:24:03.284Z,100.00
2023-11-30T02:26:30.741Z,100.00
2023-11-30T02:28:58.526Z,100.00
2023-11-30T02:31:25.961Z,100.00
2023-11-30T02:33:53.461Z,100.00
2023-11-30T02:36:21.337Z,100.00
2023-11-30T02:38:48.719Z,100.00
2023-11-30T02:41:18.265Z,100.00
2023-11-30T02:43:45.887Z,100.00
2023-11-30T02:46:13.469Z,100.00
2023-11-30T02:48:40.948Z,100.00
2023-11-30T02:51:08.716Z,100.00
2023-11-30T02:53:36.081Z,100.00
2023-11-30T02:56:03.650Z,100.00
2023-11-30T02:58:31.372Z,100.00
2023-11-30T03:00:58.785Z,100.00
2023-11-30T03:03:26.274Z,100.00
2023-11-30T03:05:54.463Z,100.00
2023-11-30T03:08:21.908Z,100.00
2023-11-30T03:10:49.313Z,100.00
2023-11-30T03:13:17.102Z,100.00
2023-11-30T03:15:47.253Z,100.00
2023-11-30T03:18:14.770Z,100.00
2023-11-30T03:20:42.739Z,100.00
2023-11-30T03:23:10.086Z,100.00
2023-11-30T03:25:38.139Z,100.00
2023-11-30T03:28:05.926Z,100.00
2023-11-30T03:30:33.765Z,100.00
2023-11-30T03:33:01.402Z,100.00
2023-11-30T03:35:29.244Z,100.00
2023-11-30T03:37:56.677Z,100.00
2023-11-30T03:40:24.077Z,100.00
2023-11-30T03:42:51.754Z,100.00
2023-11-30T03:45:19.232Z,100.00
2023-11-30T03:47:46.767Z,100.00
2023-11-30T03:50:14.541Z,100.00
2023-11-30T03:52:41.937Z,100.00
2023-11-30T03:55:09.941Z,100.00
2023-11-30T03:57:37.601Z,100.00
2023-11-30T04:00:08.911Z,100.00
2023-11-30T04:02:37.257Z,100.00
2023-11-30T04:05:06.753Z,100.00
2023-11-30T04:07:34.077Z,100.00
2023-11-30T04:10:01.792Z,100.00
2023-11-30T04:12:29.161Z,100.00
2023-11-30T04:14:56.702Z,100.00
2023-11-30T04:17:24.706Z,100.00
2023-11-30T04:19:52.161Z,100.00
2023-11-30T04:22:19.565Z,100.00
2023-11-30T04:24:47.172Z,100.00
2023-11-30T04:27:14.481Z,100.00
2023-11-30T04:29:41.930Z,100.00
2023-11-30T04:32:09.759Z,100.00
2023-11-30T04:34:37.081Z,100.00
2023-11-30T04:37:04.802Z,100.00
2023-11-30T04:39:32.608Z,100.00
2023-11-30T04:42:00.098Z,100.00
2023-11-30T04:44:30.944Z,100.00
2023-11-30T04:46:59.306Z,100.00
2023-11-30T04:49:26.984Z,100.00
2023-11-30T04:51:54.517Z,100.00
2023-11-30T04:54:22.285Z,100.00
2023-11-30T04:56:50.245Z,100.00
2023-11-30T04:59:17.692Z,100.00
2023-11-30T05:01:45.899Z,100.00
2023-11-30T05:04:14.786Z,100.00
2023-11-30T05:06:43.278Z,100.00
2023-11-30T05:09:12.018Z,100.00
2023-11-30T05:11:39.777Z,100.00
2023-11-30T05:14:07.142Z,100.00
2023-11-30T05:16:35.022Z,100.00
2023-11-30T05:19:03.501Z,100.00
2023-11-30T05:21:31.670Z,100.00
2023-11-30T05:24:00.022Z,100.00
2023-11-30T05:26:27.468Z,100.00
2023-11-30T05:28:54.943Z,100.00
2023-11-30T05:31:22.783Z,100.00
2023-11-30T05:33:50.462Z,100.00
2023-11-30T05:36:18.830Z,100.00
2023-11-30T05:38:46.792Z,100.00
2023-11-30T05:41:14.199Z,100.00
2023-11-30T05:43:41.834Z,100.00
2023-11-30T05:46:09.647Z,100.00
2023-11-30T05:48:37.075Z,100.00
2023-11-30T05:51:04.602Z,100.00
2023-11-30T05:53:32.913Z,100.00
2023-11-30T05:56:00.743Z,100.00
2023-11-30T05:58:29.846Z,100.00
2023-11-30T06:00:58.973Z,100.00
2023-11-30T06:03:28.132Z,100.00
2023-11-30T06:05:56.697Z,100.00
2023-11-30T06:08:28.429Z,100.00
2023-11-30T06:10:56.338Z,100.00
2023-11-30T06:13:25.858Z,100.00
2023-11-30T06:15:54.168Z,100.00
2023-11-30T06:18:25.752Z,100.00
2023-11-30T06:20:53.038Z,100.00
2023-11-30T06:23:20.773Z,100.00
2023-11-30T06:25:50.104Z,100.00
2023-11-30T06:28:18.409Z,100.00
2023-11-30T06:30:46.128Z,100.00
2023-11-30T06:33:14.621Z,100.00
2023-11-30T06:35:42.044Z,100.00
2023-11-30T06:38:09.492Z,100.00
2023-11-30T06:40:37.822Z,100.00
2023-11-30T06:43:06.285Z,100.00
2023-11-30T06:45:34.217Z,100.00
2023-11-30T06:48:02.467Z,100.00
2023-11-30T06:50:33.192Z,100.00
2023-11-30T06:53:00.804Z,100.00
2023-11-30T06:55:28.762Z,100.00
2023-11-30T06:57:56.539Z,100.00
2023-11-30T07:00:23.883Z,100.00
2023-11-30T07:02:52.159Z,100.00
2023-11-30T07:05:20.034Z,100.00
2023-11-30T07:07:47.362Z,100.00
2023-11-30T07:10:15.393Z,100.00
2023-11-30T07:12:43.332Z,100.00
2023-11-30T07:15:11.500Z,100.00
2023-11-30T07:17:39.460Z,100.00
2023-11-30T07:20:10.077Z,100.00
2023-11-30T07:22:38.610Z,100.00
2023-11-30T07:25:08.504Z,100.00
2023-11-30T07:27:35.834Z,100.00
2023-11-30T07:30:03.392Z,100.00
2023-11-30T07:32:31.783Z,100.00
2023-11-30T07:35:00.908Z,100.00
2023-11-30T07:37:28.303Z,100.00
2023-11-30T07:39:56.815Z,100.00
2023-11-30T07:42:29.902Z,100.00
2023-11-30T07:45:03.938Z,100.00
2023-11-30T07:47:33.475Z,100.00
2023-11-30T07:50:01.074Z,100.00
2023-11-30T07:52:30.710Z,100.00
2023-11-30T07:54:59.121Z,100.00
2023-11-30T07:57:26.910Z,100.00
2023-11-30T07:59:54.749Z,100.00
2023-11-30T08:02:22.723Z,100.00
2023-11-30T08:04:50.823Z,100.00
2023-11-30T08:07:18.319Z,100.00
2023-11-30T08:09:45.838Z,100.00
2023-11-30T08:12:13.678Z,100.00
2023-11-30T08:14:41.035Z,100.00
2023-11-30T08:17:08.418Z,100.00
2023-11-30T08:19:37.396Z,100.00
2023-11-30T08:22:06.646Z,100.00
2023-11-30T08:24:34.234Z,100.00
2023-11-30T08:27:03.994Z,100.00
2023-11-30T08:29:31.772Z,100.00
2023-11-30T08:31:59.665Z,100.00
2023-11-30T08:34:27.420Z,100.00
2023-11-30T08:36:54.876Z,100.00
2023-11-30T08:39:24.881Z,100.00
2023-11-30T08:41:54.644Z,100.00
2023-11-30T08:44:26.065Z,100.00
2023-11-30T08:46:54.830Z,100.00
2023-11-30T08:49:23.586Z,100.00
2023-11-30T08:51:51.168Z,100.00
2023-11-30T08:54:20.331Z,100.00
2023-11-30T08:56:47.728Z,100.00
2023-11-30T08:59:15.053Z,100.00
2023-11-30T09:01:43.134Z,100.00
2023-11-30T09:04:10.982Z,100.00
2023-11-30T09:06:41.125Z,100.00
2023-11-30T09:09:10.184Z,100.00
2023-11-30T09:11:37.711Z,100.00
2023-11-30T09:14:05.913Z,100.00
2023-11-30T09:16:33.874Z,100.00
2023-11-30T09:19:01.772Z,100.00
2023-11-30T09:21:31.133Z,100.00
2023-11-30T09:24:00.598Z,100.00
2023-11-30T09:26:28.213Z,100.00
2023-11-30T09:28:55.814Z,100.00
2023-11-30T09:31:23.749Z,100.00
2023-11-30T09:33:51.234Z,100.00
2023-11-30T09:36:18.936Z,100.00
2023-11-30T09:38:48.370Z,100.00
2023-11-30T09:41:17.201Z,100.00
2023-11-30T09:43:46.940Z,100.00
2023-11-30T09:46:14.791Z,100.00
2023-11-30T09:48:43.295Z,100.00
2023-11-30T09:51:12.290Z,100.00
2023-11-30T09:53:40.252Z,100.00
2023-11-30T09:56:08.527Z,100.00
2023-11-30T09:58:38.913Z,100.00
2023-11-30T10:01:09.357Z,100.00
2023-11-30T10:03:39.530Z,100.00
2023-11-30T10:06:07.806Z,100.00
2023-11-30T10:08:35.287Z,98.73
2023-11-30T10:11:05.181Z,97.18
2023-11-30T10:13:32.740Z,96.54
2023-11-30T10:16:00.331Z,96.15
2023-11-30T10:18:31.668Z,97.29
2023-11-30T10:20:59.459Z,98.69
2023-11-30T10:23:27.548Z,98.43
2023-11-30T10:25:57.162Z,100.00
2023-11-30T10:28:24.839Z,100.00
2023-11-30T10:30:55.469Z,100.00
2023-11-30T10:33:25.498Z,98.90
2023-11-30T10:35:54.433Z,95.40
2023-11-30T10:38:29.055Z,93.29
2023-11-30T10:41:02.893Z,90.49
2023-11-30T10:43:32.492Z,94.13
2023-11-30T10:46:04.284Z,91.82
2023-11-30T10:48:32.912Z,88.26
2023-11-30T10:51:01.486Z,86.84
2023-11-30T10:54:15.274Z,83.94
2023-11-30T10:56:43.608Z,75.70
2023-11-30T10:59:14.764Z,70.97
2023-11-30T11:01:46.847Z,70.21
2023-11-30T11:04:16.004Z,69.89
2023-11-30T11:06:44.125Z,71.85
2023-11-30T11:09:17.656Z,72.51
2023-11-30T11:11:46.142Z,70.12
2023-11-30T11:14:46.059Z,69.60
2023-11-30T11:17:13.919Z,67.89
2023-11-30T11:19:45.741Z,66.18
2023-11-30T11:22:27.541Z,66.11
2023-11-30T11:24:59.554Z,66.13
2023-11-30T11:27:30.272Z,64.70
2023-11-30T11:30:06.640Z,66.08
2023-11-30T11:32:36.149Z,66.86
2023-11-30T11:35:04.884Z,68.73
2023-11-30T11:37:33.494Z,66.77
2023-11-30T11:40:03.409Z,66.99
2023-11-30T11:42:33.545Z,66.66
2023-11-30T11:45:05.902Z,67.56
2023-11-30T11:47:34.162Z,67.74
2023-11-30T11:50:02.207Z,68.54
2023-11-30T11:52:31.909Z,68.22
2023-11-30T11:55:10.350Z,68.95
2023-11-30T11:57:44.999Z,69.54
2023-11-30T12:00:21.931Z,67.03
2023-11-30T12:02:51.161Z,67.19
2023-11-30T12:05:26.869Z,66.31
2023-11-30T12:08:00.928Z,65.81
2023-11-30T12:10:42.645Z,64.85
2023-11-30T12:13:13.846Z,65.72
2023-11-30T12:15:42.342Z,63.48
2023-11-30T12:18:11.738Z,63.42
2023-11-30T12:20:39.938Z,62.00
2023-11-30T12:23:07.559Z,61.36
2023-11-30T12:25:35.654Z,61.41
2023-11-30T12:28:03.168Z,60.14
2023-11-30T12:30:31.507Z,58.06
2023-11-30T12:33:01.276Z,57.92
2023-11-30T12:35:29.386Z,56.01
2023-11-30T12:37:56.990Z,55.90
2023-11-30T12:40:25.191Z,54.07
2023-11-30T12:42:52.817Z,54.63
2023-11-30T12:45:20.696Z,54.58
2023-11-30T12:47:50.611Z,52.85
2023-11-30T12:50:18.514Z,51.71
2023-11-30T12:52:46.213Z,50.67
2023-11-30T12:55:16.414Z,50.97
2023-11-30T12:57:48.840Z,51.50
2023-11-30T13:00:17.587Z,52.60
2023-11-30T13:02:47.042Z,54.23
2023-11-30T13:05:15.701Z,55.57
2023-11-30T13:07:44.353Z,56.26
2023-11-30T13:10:13.166Z,58.69
2023-11-30T13:12:42.971Z,61.19
2023-11-30T13:15:12.402Z,63.70
2023-11-30T13:17:40.268Z,65.46
2023-11-30T13:20:10.001Z,66.23
2023-11-30T13:22:37.904Z,67.17
2023-11-30T13:25:06.882Z,69.08
2023-11-30T13:27:34.591Z,70.81
2023-11-30T13:30:02.616Z,72.27
2023-11-30T13:32:32.565Z,73.15
2023-11-30T13:35:00.323Z,74.39
2023-11-30T13:37:28.283Z,74.43
2023-11-30T13:39:55.828Z,75.24
2023-11-30T13:42:24.162Z,76.03
2023-11-30T13:44:52.129Z,76.87
2023-11-30T13:47:20.968Z,76.94
2023-11-30T13:49:48.608Z,78.10
2023-11-30T13:52:16.459Z,78.69
2023-11-30T13:54:44.028Z,79.05
2023-11-30T13:57:11.675Z,79.80
2023-11-30T13:59:40.388Z,80.59
2023-11-30T14:02:08.372Z,81.19
2023-11-30T14:04:36.543Z,82.19
2023-11-30T14:07:05.244Z,81.25
2023-11-30T14:09:33.246Z,82.21
2023-11-30T14:12:01.284Z,83.29
2023-11-30T14:14:28.775Z,84.23
2023-11-30T14:16:56.495Z,85.74
2023-11-30T14:19:24.613Z,86.41
2023-11-30T14:21:52.141Z,85.22
2023-11-30T14:24:19.864Z,85.94
2023-11-30T14:26:47.791Z,86.02
2023-11-30T14:29:15.775Z,86.48
2023-11-30T14:31:43.382Z,86.94
2023-11-30T14:34:11.380Z,86.40
2023-11-30T14:36:39.109Z,87.28
2023-11-30T14:39:07.673Z,87.35
2023-11-30T14:41:38.563Z,87.49
2023-11-30T14:44:06.261Z,89.01
2023-11-30T14:46:33.867Z,88.63
2023-11-30T14:49:01.829Z,88.04
2023-11-30T14:51:29.452Z,88.98
2023-11-30T14:53:57.109Z,90.65
2023-11-30T14:56:26.936Z,91.31
2023-11-30T14:58:54.506Z,91.86
2023-11-30T15:01:22.060Z,92.69
2023-11-30T15:03:50.148Z,94.76
2023-11-30T15:06:18.020Z,94.98
2023-11-30T15:08:46.039Z,96.82
2023-11-30T15:11:13.993Z,97.66
2023-11-30T15:13:41.978Z,98.83
2023-11-30T15:16:09.927Z,98.68
2023-11-30T15:18:37.871Z,98.95
2023-11-30T15:21:05.567Z,98.99
2023-11-30T15:23:33.019Z,99.23
2023-11-30T15:26:00.994Z,99.18
2023-11-30T15:28:28.574Z,100.00
2023-11-30T15:30:56.127Z,100.00
2023-11-30T15:33:24.161Z,99.44
2023-11-30T15:35:52.318Z,98.57
2023-11-30T15:38:19.840Z,98.74
2023-11-30T15:40:47.831Z,99.36
2023-11-30T15:43:15.342Z,100.00
2023-11-30T15:45:43.061Z,100.00
2023-11-30T15:48:12.384Z,100.00
2023-11-30T15:50:40.243Z,100.00
2023-11-30T15:53:07.720Z,100.00
2023-11-30T15:55:35.727Z,100.00
2023-11-30T15:58:03.343Z,100.00
2023-11-30T16:00:30.956Z,100.00
2023-11-30T16:03:02.177Z,100.00
2023-11-30T16:05:30.566Z,100.00
2023-11-30T16:07:58.931Z,100.00
2023-11-30T16:10:27.112Z,100.00
2023-11-30T16:12:54.829Z,100.00
2023-11-30T16:15:23.016Z,100.00
2023-11-30T16:17:52.426Z,100.00
2023-11-30T16:20:20.047Z,100.00
2023-11-30T16:22:47.723Z,100.00
2023-11-30T16:25:15.635Z,100.00
2023-11-30T16:27:44.131Z,100.00
2023-11-30T16:30:12.842Z,100.00
2023-11-30T16:32:40.850Z,100.00
2023-11-30T16:35:09.214Z,100.00
2023-11-30T16:37:37.081Z,100.00
2023-11-30T16:40:06.004Z,100.00
2023-11-30T16:42:33.976Z,100.00
2023-11-30T16:45:01.745Z,100.00
2023-11-30T16:47:29.723Z,100.00
2023-11-30T16:49:57.375Z,100.00
2023-11-30T16:52:25.102Z,100.00
2023-11-30T16:54:53.131Z,100.00
2023-11-30T16:57:20.730Z,100.00
2023-11-30T16:59:48.440Z,100.00
2023-11-30T17:02:16.339Z,100.00
2023-11-30T17:04:44.591Z,100.00
2023-11-30T17:07:12.312Z,100.00
2023-11-30T17:09:40.734Z,100.00
2023-11-30T17:12:08.493Z,100.00
2023-11-30T17:14:36.046Z,100.00
2023-11-30T17:17:04.081Z,100.00
2023-11-30T17:19:32.015Z,100.00
2023-11-30T17:21:59.694Z,100.00
2023-11-30T17:24:29.284Z,100.00
2023-11-30T17:26:57.568Z,100.00
2023-11-30T17:29:25.139Z,100.00
2023-11-30T17:31:53.363Z,100.00
2023-11-30T17:34:21.410Z,100.00
2023-11-30T17:36:49.288Z,100.00
2023-11-30T17:39:18.255Z,100.00
2023-11-30T17:41:46.323Z,100.00
2023-11-30T17:44:13.924Z,100.00
2023-11-30T17:46:43.899Z,100.00
2023-11-30T17:49:12.879Z,100.00
2023-11-30T17:51:40.809Z,100.00
2023-11-30T17:54:08.930Z,100.00
2023-11-30T17:56:36.515Z,100.00
2023-11-30T17:59:04.621Z,100.00
2023-11-30T18:01:33.001Z,100.00
2023-11-30T18:04:01.624Z,100.00
2023-11-30T18:06:30.204Z,100.00
2023-11-30T18:08:57.840Z,100.00
2023-11-30T18:11:26.042Z,100.00
2023-11-30T18:13:53.522Z,100.00
2023-11-30T18:16:21.125Z,100.00
2023-11-30T18:18:49.810Z,100.00
2023-11-30T18:21:18.167Z,100.00
2023-11-30T18:23:46.041Z,100.00
2023-11-30T18:26:13.905Z,100.00
2023-11-30T18:28:41.554Z,100.00
2023-11-30T18:31:16.764Z,100.00
2023-11-30T18:33:51.289Z,100.00
2023-11-30T18:36:19.182Z,100.00
2023-11-30T18:38:50.850Z,100.00
2023-11-30T18:41:23.263Z,100.00
2023-11-30T18:43:51.225Z,100.00
2023-11-30T18:46:19.373Z,100.00
2023-11-30T18:48:47.717Z,100.00
2023-11-30T18:51:15.449Z,100.00
2023-11-30T18:53:43.029Z,100.00
2023-11-30T18:56:11.315Z,100.00
2023-11-30T18:58:39.845Z,100.00
2023-11-30T19:01:07.555Z,100.00
2023-11-30T19:03:36.133Z,100.00
2023-11-30T19:06:04.172Z,100.00
2023-11-30T19:08:32.002Z,100.00
2023-11-30T19:11:00.003Z,100.00
2023-11-30T19:13:27.552Z,100.00
2023-11-30T19:15:55.216Z,100.00
2023-11-30T19:18:23.327Z,100.00
2023-11-30T19:20:50.895Z,100.00
2023-11-30T19:23:18.568Z,100.00
2023-11-30T19:25:46.563Z,100.00
2023-11-30T19:28:14.511Z,100.00
2023-11-30T19:30:42.225Z,100.00
2023-11-30T19:33:10.398Z,100.00
2023-11-30T19:35:38.084Z,100.00
2023-11-30T19:38:05.786Z,100.00
2023-11-30T19:40:33.783Z,100.00
2023-11-30T19:43:01.365Z,100.00
2023-11-30T19:45:29.021Z,100.00
2023-11-30T19:47:57.115Z,100.00
2023-11-30T19:50:25.063Z,100.00
2023-11-30T19:52:52.968Z,100.00
2023-11-30T19:55:20.898Z,100.00
2023-11-30T19:57:48.467Z,100.00
2023-11-30T20:00:16.489Z,100.00
2023-11-30T20:02:44.630Z,100.00
2023-11-30T20:05:14.001Z,100.00
2023-11-30T20:07:41.440Z,100.00
2023-11-30T20:10:12.240Z,100.00
2023-11-30T20:12:42.823Z,100.00
2023-11-30T20:15:10.944Z,100.00
2023-11-30T20:17:38.516Z,100.00
2023-11-30T20:20:06.635Z,100.00
2023-11-30T20:22:34.573Z,100.00
2023-11-30T20:25:02.200Z,100.00
2023-11-30T20:27:29.830Z,100.00
2023-11-30T20:29:58.049Z,100.00
2023-11-30T20:32:25.962Z,100.00
2023-11-30T20:34:54.003Z,100.00
2023-11-30T20:37:21.987Z,100.00
2023-11-30T20:39:49.582Z,100.00
2023-11-30T20:42:17.222Z,100.00
2023-11-30T20:44:45.151Z,100.00
2023-11-30T20:47:12.706Z,100.00
2023-11-30T20:49:40.343Z,100.00
2023-11-30T20:52:08.341Z,100.00
2023-11-30T20:54:36.037Z,100.00
2023-11-30T20:57:03.574Z,100.00
2023-11-30T20:59:32.079Z,100.00
2023-11-30T21:02:00.289Z,100.00
2023-11-30T21:04:28.126Z,100.00
2023-11-30T21:06:56.227Z,100.00
2023-11-30T21:09:24.036Z,100.00
2023-11-30T21:11:55.522Z,100.00
2023-11-30T21:14:23.670Z,100.00
2023-11-30T21:16:51.690Z,100.00
2023-11-30T21:19:20.846Z,100.00
2023-11-30T21:21:48.919Z,100.00
2023-11-30T21:24:16.703Z,100.00
2023-11-30T21:26:44.999Z,100.00
2023-11-30T21:29:13.395Z,100.00
2023-11-30T21:31:41.181Z,100.00
2023-11-30T21:34:08.784Z,100.00
2023-11-30T21:36:43.173Z,100.00
2023-11-30T21:39:15.582Z,100.00
2023-11-30T21:41:43.551Z,100.00
2023-11-30T21:44:11.277Z,100.00
2023-11-30T21:46:39.181Z,100.00
2023-11-30T21:49:07.336Z,100.00
2023-11-30T21:51:37.008Z,100.00
2023-11-30T21:54:04.633Z,100.00
2023-11-30T21:56:33.712Z,100.00
2023-11-30T21:59:01.342Z,100.00
2023-11-30T22:01:29.241Z,100.00
2023-11-30T22:03:57.392Z,100.00
2023-11-30T22:06:25.171Z,100.00
2023-11-30T22:08:53.896Z,100.00
2023-11-30T22:11:21.836Z,100.00
2023-11-30T22:13:49.349Z,100.00
2023-11-30T22:16:23.654Z,100.00
2023-11-30T22:18:56.950Z,100.00
2023-11-30T22:21:24.571Z,100.00
2023-11-30T22:23:52.054Z,100.00
2023-11-30T22:26:20.148Z,100.00
2023-11-30T22:28:47.890Z,100.00
2023-11-30T22:31:17.633Z,100.00
2023-11-30T22:33:45.874Z,100.00
2023-11-30T22:36:13.790Z,100.00
2023-11-30T22:38:46.168Z,100.00
2023-11-30T22:41:15.244Z,100.00
2023-11-30T22:43:42.746Z,100.00
2023-11-30T22:46:20.962Z,100.00
2023-11-30T22:48:52.248Z,100.00
2023-11-30T22:51:20.082Z,100.00
2023-11-30T22:53:47.838Z,100.00
2023-11-30T22:56:20.900Z,100.00
2023-11-30T22:58:48.715Z,100.00
2023-11-30T23:01:17.553Z,100.00
2023-11-30T23:03:45.890Z,100.00
2023-11-30T23:06:15.642Z,100.00
2023-11-30T23:08:44.362Z,100.00
2023-11-30T23:11:12.238Z,100.00
2023-11-30T23:13:40.717Z,100.00
2023-11-30T23:16:09.492Z,100.00
2023-11-30T23:18:37.249Z,100.00
2023-11-30T23:21:05.238Z,100.00
2023-11-30T23:23:33.242Z,100.00
2023-11-30T23:26:01.391Z,100.00
2023-11-30T23:28:29.078Z,100.00
2023-11-30T23:30:57.767Z,100.00
2023-11-30T23:33:25.480Z,100.00
2023-11-30T23:35:53.249Z,100.00
2023-11-30T23:38:21.225Z,100.00
2023-11-30T23:40:49.641Z,100.00
2023-11-30T23:43:19.271Z,100.00
2023-11-30T23:45:47.349Z,100.00
2023-11-30T23:48:15.170Z,100.00
2023-11-30T23:50:42.861Z,100.00
2023-11-30T23:53:10.924Z,100.00
2023-11-30T23:55:38.641Z,100.00
2023-11-30T23:58:06.312Z,100.00
